sensor_id;sensor_type;location;lat;lon;timestamp;P1;P2;P0
62778;PMS7003;48821;48.796;2.396;2022-08-01T04:54:35;1.00;1.00;1.00
62778;PMS7003;48821;48.796;2.396;2022-08-01T04:55:49;0.75;0.75;0.75
62778;PMS7003;48821;48.796;2.396;2022-08-01T04:56:59;0.00;0.00;0.00
62778;PMS7003;48821;48.796;2.396;2022-08-01T04:58:10;0.00;0.00;0.00
62778;PMS7003;48821;48.796;2.396;2022-08-01T04:59:21;0.00;0.00;0.00
62778;PMS7003;48821;48.796;2.396;2022-08-01T05:00:50;1.50;1.50;1.00
62778;PMS7003;48821;48.796;2.396;2022-08-01T05:02:00;0.00;0.00;0.00
62778;PMS7003;48821;48.796;2.396;2022-08-01T05:03:10;1.25;1.00;0.00
62778;PMS7003;48821;48.796;2.396;2022-08-01T05:04:21;2.50;1.00;1.00
62778;PMS7003;48821;48.796;2.396;2022-08-01T05:05:31;1.50;1.00;1.00
62778;PMS7003;48821;48.796;2.396;2022-08-01T05:06:41;1.25;1.00;1.00
62778;PMS7003;48821;48.796;2.396;2022-08-01T05:07:52;2.00;1.00;1.00
62778;PMS7003;48821;48.796;2.396;2022-08-01T05:09:02;1.25;1.00;0.00
62778;PMS7003;48821;48.796;2.396;2022-08-01T05:10:12;1.50;0.75;0.75
62778;PMS7003;48821;48.796;2.396;2022-08-01T05:11:23;1.00;1.00;1.00
62778;PMS7003;48821;48.796;2.396;2022-08-01T05:12:33;1.50;1.50;1.00
62778;PMS7003;48821;48.796;2.396;2022-08-01T05:13:43;0.25;0.25;0.00
62778;PMS7003;48821;48.796;2.396;2022-08-01T05:14:54;1.00;1.00;0.50
62778;PMS7003;48821;48.796;2.396;2022-08-01T05:16:04;1.25;1.00;1.00
62778;PMS7003;48821;48.796;2.396;2022-08-01T05:17:14;0.75;0.75;0.00
62778;PMS7003;48821;48.796;2.396;2022-08-01T05:18:26;0.75;0.00;0.00
62778;PMS7003;48821;48.796;2.396;2022-08-01T05:19:37;1.25;1.25;0.50
62778;PMS7003;48821;48.796;2.396;2022-08-01T05:20:49;1.00;1.00;1.00
62778;PMS7003;48821;48.796;2.396;2022-08-01T05:22:00;2.50;1.75;1.00
62778;PMS7003;48821;48.796;2.396;2022-08-01T05:23:11;2.00;1.00;0.75
62778;PMS7003;48821;48.796;2.396;2022-08-01T05:24:22;1.50;1.00;1.00
62778;PMS7003;48821;48.796;2.396;2022-08-01T05:25:32;1.00;1.00;1.00
62778;PMS7003;48821;48.796;2.396;2022-08-01T05:26:43;1.00;1.00;1.00
62778;PMS7003;48821;48.796;2.396;2022-08-01T05:27:53;1.00;0.00;0.00
62778;PMS7003;48821;48.796;2.396;2022-08-01T05:29:03;1.00;1.00;0.25
62778;PMS7003;48821;48.796;2.396;2022-08-01T05:30:14;1.00;1.00;1.00
62778;PMS7003;48821;48.796;2.396;2022-08-01T05:31:25;1.00;1.00;0.25
62778;PMS7003;48821;48.796;2.396;2022-08-01T05:32:36;0.50;0.25;0.25
62778;PMS7003;48821;48.796;2.396;2022-08-01T05:33:46;1.25;1.00;1.00
62778;PMS7003;48821;48.796;2.396;2022-08-01T05:34:57;1.00;1.00;1.00
62778;PMS7003;48821;48.796;2.396;2022-08-01T05:36:07;0.00;0.00;0.00
62778;PMS7003;48821;48.796;2.396;2022-08-01T05:37:17;1.00;1.00;1.00
62778;PMS7003;48821;48.796;2.396;2022-08-01T05:38:28;3.00;1.75;1.00
62778;PMS7003;48821;48.796;2.396;2022-08-01T05:39:38;1.00;1.00;1.00
62778;PMS7003;48821;48.796;2.396;2022-08-01T05:40:49;0.75;0.50;0.50
62778;PMS7003;48821;48.796;2.396;2022-08-01T05:41:59;1.75;1.75;1.00
62778;PMS7003;48821;48.796;2.396;2022-08-01T05:43:09;1.00;1.00;1.00
62778;PMS7003;48821;48.796;2.396;2022-08-01T05:44:20;1.25;1.25;1.00
62778;PMS7003;48821;48.796;2.396;2022-08-01T05:45:30;1.00;1.00;0.00
62778;PMS7003;48821;48.796;2.396;2022-08-01T05:46:41;1.00;1.00;1.00
62778;PMS7003;48821;48.796;2.396;2022-08-01T05:47:51;0.00;0.00;0.00
62778;PMS7003;48821;48.796;2.396;2022-08-01T05:49:02;1.25;1.25;1.25
62778;PMS7003;48821;48.796;2.396;2022-08-01T05:50:14;1.00;1.00;1.00
62778;PMS7003;48821;48.796;2.396;2022-08-01T05:51:24;0.00;0.00;0.00
62778;PMS7003;48821;48.796;2.396;2022-08-01T05:52:35;1.00;1.00;1.00
62778;PMS7003;48821;48.796;2.396;2022-08-01T05:53:45;3.00;1.00;1.00
62778;PMS7003;48821;48.796;2.396;2022-08-01T05:54:56;1.00;1.00;0.25
62778;PMS7003;48821;48.796;2.396;2022-08-01T05:56:06;0.00;0.00;0.00
62778;PMS7003;48821;48.796;2.396;2022-08-01T05:57:16;1.25;1.00;1.00
62778;PMS7003;48821;48.796;2.396;2022-08-01T05:58:27;2.00;1.00;1.00
62778;PMS7003;48821;48.796;2.396;2022-08-01T05:59:37;1.00;1.00;0.50
62778;PMS7003;48821;48.796;2.396;2022-08-01T06:00:48;2.50;1.00;0.75
62778;PMS7003;48821;48.796;2.396;2022-08-01T06:01:58;0.00;0.00;0.00
62778;PMS7003;48821;48.796;2.396;2022-08-01T06:03:08;0.00;0.00;0.00
62778;PMS7003;48821;48.796;2.396;2022-08-01T06:04:19;1.00;1.00;1.00
62778;PMS7003;48821;48.796;2.396;2022-08-01T06:05:29;1.00;1.00;1.00
62778;PMS7003;48821;48.796;2.396;2022-08-01T06:06:39;1.00;1.00;0.75
62778;PMS7003;48821;48.796;2.396;2022-08-01T06:07:50;1.00;1.00;0.75
62778;PMS7003;48821;48.796;2.396;2022-08-01T06:09:00;2.50;1.00;1.00
62778;PMS7003;48821;48.796;2.396;2022-08-01T06:10:10;2.25;0.00;0.00
62778;PMS7003;48821;48.796;2.396;2022-08-01T06:11:21;1.25;1.25;1.00
62778;PMS7003;48821;48.796;2.396;2022-08-01T06:12:34;2.50;1.00;1.00
62778;PMS7003;48821;48.796;2.396;2022-08-01T06:13:46;2.50;1.75;1.00
62778;PMS7003;48821;48.796;2.396;2022-08-01T06:14:57;1.00;1.00;1.00
62778;PMS7003;48821;48.796;2.396;2022-08-01T06:16:07;1.00;1.00;0.75
62778;PMS7003;48821;48.796;2.396;2022-08-01T06:17:18;1.50;0.75;0.75
62778;PMS7003;48821;48.796;2.396;2022-08-01T06:18:28;2.00;1.00;1.00
62778;PMS7003;48821;48.796;2.396;2022-08-01T06:19:38;1.00;1.00;1.00
62778;PMS7003;48821;48.796;2.396;2022-08-01T06:20:49;1.00;1.00;1.00
62778;PMS7003;48821;48.796;2.396;2022-08-01T06:21:59;0.50;0.50;0.25
62778;PMS7003;48821;48.796;2.396;2022-08-01T06:23:09;3.50;1.25;1.00
62778;PMS7003;48821;48.796;2.396;2022-08-01T06:24:20;1.00;1.00;1.00
62778;PMS7003;48821;48.796;2.396;2022-08-01T06:25:32;3.75;2.00;2.00
62778;PMS7003;48821;48.796;2.396;2022-08-01T06:26:43;2.25;1.00;0.75
62778;PMS7003;48821;48.796;2.396;2022-08-01T06:27:53;2.50;1.25;1.00
62778;PMS7003;48821;48.796;2.396;2022-08-01T06:29:04;0.75;0.75;0.75
62778;PMS7003;48821;48.796;2.396;2022-08-01T06:30:14;1.00;1.00;1.00
62778;PMS7003;48821;48.796;2.396;2022-08-01T06:31:24;1.25;1.25;1.00
62778;PMS7003;48821;48.796;2.396;2022-08-01T06:32:35;1.00;1.00;1.00
62778;PMS7003;48821;48.796;2.396;2022-08-01T06:33:45;2.00;2.00;1.50
62778;PMS7003;48821;48.796;2.396;2022-08-01T06:34:55;2.50;0.75;0.75
62778;PMS7003;48821;48.796;2.396;2022-08-01T06:36:06;1.00;1.00;0.50
62778;PMS7003;48821;48.796;2.396;2022-08-01T06:37:16;1.25;1.25;1.25
62778;PMS7003;48821;48.796;2.396;2022-08-01T06:38:26;1.00;1.00;1.00
62778;PMS7003;48821;48.796;2.396;2022-08-01T06:39:37;1.00;1.00;1.00
62778;PMS7003;48821;48.796;2.396;2022-08-01T06:40:47;1.00;1.00;1.00
62778;PMS7003;48821;48.796;2.396;2022-08-01T06:41:57;1.00;1.00;1.00
62778;PMS7003;48821;48.796;2.396;2022-08-01T06:43:08;0.75;0.75;0.75
62778;PMS7003;48821;48.796;2.396;2022-08-01T06:44:18;2.00;1.25;1.00
62778;PMS7003;48821;48.796;2.396;2022-08-01T06:45:28;3.25;1.00;1.00
62778;PMS7003;48821;48.796;2.396;2022-08-01T06:46:39;1.00;1.00;1.00
62778;PMS7003;48821;48.796;2.396;2022-08-01T06:47:49;2.50;1.25;1.00
62778;PMS7003;48821;48.796;2.396;2022-08-01T06:48:59;1.00;1.00;0.75
62778;PMS7003;48821;48.796;2.396;2022-08-01T06:50:10;1.00;1.00;0.75
62778;PMS7003;48821;48.796;2.396;2022-08-01T06:51:21;1.75;1.25;1.00
62778;PMS7003;48821;48.796;2.396;2022-08-01T06:52:31;2.75;0.00;0.00
62778;PMS7003;48821;48.796;2.396;2022-08-01T06:53:42;1.00;1.00;1.00
62778;PMS7003;48821;48.796;2.396;2022-08-01T06:54:52;3.00;1.00;1.00
62778;PMS7003;48821;48.796;2.396;2022-08-01T06:56:03;1.00;1.00;1.00
62778;PMS7003;48821;48.796;2.396;2022-08-01T06:57:14;2.00;0.50;0.25
62778;PMS7003;48821;48.796;2.396;2022-08-01T06:58:24;1.00;1.00;1.00
62778;PMS7003;48821;48.796;2.396;2022-08-01T06:59:35;1.00;1.00;1.00
62778;PMS7003;48821;48.796;2.396;2022-08-01T07:00:45;1.00;1.00;0.75
62778;PMS7003;48821;48.796;2.396;2022-08-01T07:01:55;2.50;1.25;1.00
62778;PMS7003;48821;48.796;2.396;2022-08-01T07:03:06;2.00;1.25;1.25
62778;PMS7003;48821;48.796;2.396;2022-08-01T07:04:16;1.00;1.00;0.75
62778;PMS7003;48821;48.796;2.396;2022-08-01T07:05:27;1.50;1.00;1.00
62778;PMS7003;48821;48.796;2.396;2022-08-01T07:06:38;2.00;2.00;1.00
62778;PMS7003;48821;48.796;2.396;2022-08-01T07:07:48;1.00;1.00;1.00
62778;PMS7003;48821;48.796;2.396;2022-08-01T07:08:59;2.00;2.00;2.00
62778;PMS7003;48821;48.796;2.396;2022-08-01T07:10:11;2.50;1.00;1.00
62778;PMS7003;48821;48.796;2.396;2022-08-01T07:11:24;1.00;1.00;1.00
62778;PMS7003;48821;48.796;2.396;2022-08-01T07:12:35;1.00;1.00;1.00
62778;PMS7003;48821;48.796;2.396;2022-08-01T07:13:47;1.50;1.00;1.00
62778;PMS7003;48821;48.796;2.396;2022-08-01T07:14:58;1.25;1.25;1.00
62778;PMS7003;48821;48.796;2.396;2022-08-01T07:16:09;1.00;1.00;1.00
62778;PMS7003;48821;48.796;2.396;2022-08-01T07:17:19;1.00;1.00;1.00
62778;PMS7003;48821;48.796;2.396;2022-08-01T07:18:30;1.25;1.25;1.00
62778;PMS7003;48821;48.796;2.396;2022-08-01T07:19:40;0.00;0.00;0.00
62778;PMS7003;48821;48.796;2.396;2022-08-01T07:20:51;1.25;0.75;0.50
62778;PMS7003;48821;48.796;2.396;2022-08-01T07:22:01;1.00;1.00;1.00
62778;PMS7003;48821;48.796;2.396;2022-08-01T07:23:12;2.00;2.00;2.00
62778;PMS7003;48821;48.796;2.396;2022-08-01T07:24:23;1.75;1.75;1.50
62778;PMS7003;48821;48.796;2.396;2022-08-01T07:25:33;1.00;1.00;1.00
62778;PMS7003;48821;48.796;2.396;2022-08-01T07:26:45;1.00;1.00;1.00
62778;PMS7003;48821;48.796;2.396;2022-08-01T07:27:57;1.00;1.00;1.00
62778;PMS7003;48821;48.796;2.396;2022-08-01T07:29:07;1.25;1.25;1.25
62778;PMS7003;48821;48.796;2.396;2022-08-01T07:30:17;1.00;1.00;1.00
62778;PMS7003;48821;48.796;2.396;2022-08-01T07:31:28;1.75;1.75;1.50
62778;PMS7003;48821;48.796;2.396;2022-08-01T07:32:38;1.00;1.00;0.25
62778;PMS7003;48821;48.796;2.396;2022-08-01T07:33:49;1.50;1.00;0.75
62778;PMS7003;48821;48.796;2.396;2022-08-01T07:35:00;1.50;1.50;1.00
62778;PMS7003;48821;48.796;2.396;2022-08-01T07:36:12;1.00;1.00;1.00
62778;PMS7003;48821;48.796;2.396;2022-08-01T07:37:22;1.00;1.00;0.25
62778;PMS7003;48821;48.796;2.396;2022-08-01T07:38:33;2.00;1.25;1.25
62778;PMS7003;48821;48.796;2.396;2022-08-01T07:39:44;1.00;1.00;1.00
62778;PMS7003;48821;48.796;2.396;2022-08-01T07:40:54;1.00;1.00;0.00
62778;PMS7003;48821;48.796;2.396;2022-08-01T07:42:04;3.50;1.25;1.00
62778;PMS7003;48821;48.796;2.396;2022-08-01T07:43:15;2.00;2.00;2.00
62778;PMS7003;48821;48.796;2.396;2022-08-01T07:44:25;1.00;1.00;1.00
62778;PMS7003;48821;48.796;2.396;2022-08-01T07:45:35;1.50;1.50;1.25
62778;PMS7003;48821;48.796;2.396;2022-08-01T07:46:46;2.75;1.75;1.00
62778;PMS7003;48821;48.796;2.396;2022-08-01T07:47:56;1.75;1.75;1.25
62778;PMS7003;48821;48.796;2.396;2022-08-01T07:49:11;1.00;1.00;1.00
62778;PMS7003;48821;48.796;2.396;2022-08-01T07:50:21;1.25;1.00;0.75
62778;PMS7003;48821;48.796;2.396;2022-08-01T07:51:31;1.00;1.00;1.00
62778;PMS7003;48821;48.796;2.396;2022-08-01T07:52:42;1.50;1.00;1.00
62778;PMS7003;48821;48.796;2.396;2022-08-01T07:53:52;1.00;1.00;1.00
62778;PMS7003;48821;48.796;2.396;2022-08-01T07:55:03;2.00;1.00;1.00
62778;PMS7003;48821;48.796;2.396;2022-08-01T07:56:14;1.00;1.00;1.00
62778;PMS7003;48821;48.796;2.396;2022-08-01T07:57:24;2.50;1.00;1.00
62778;PMS7003;48821;48.796;2.396;2022-08-01T07:58:35;2.00;2.00;1.75
62778;PMS7003;48821;48.796;2.396;2022-08-01T07:59:45;2.75;1.75;1.75
62778;PMS7003;48821;48.796;2.396;2022-08-01T08:00:56;1.75;1.75;1.25
62778;PMS7003;48821;48.796;2.396;2022-08-01T08:02:06;1.00;1.00;1.00
62778;PMS7003;48821;48.796;2.396;2022-08-01T08:03:16;1.25;1.25;1.25
62778;PMS7003;48821;48.796;2.396;2022-08-01T08:04:27;1.50;0.00;0.00
62778;PMS7003;48821;48.796;2.396;2022-08-01T08:05:38;3.00;2.00;1.75
62778;PMS7003;48821;48.796;2.396;2022-08-01T08:06:49;2.75;1.25;1.00
62778;PMS7003;48821;48.796;2.396;2022-08-01T08:07:59;1.75;1.75;1.25
62778;PMS7003;48821;48.796;2.396;2022-08-01T08:09:09;2.00;1.25;1.00
62778;PMS7003;48821;48.796;2.396;2022-08-01T08:10:20;3.00;2.00;2.00
62778;PMS7003;48821;48.796;2.396;2022-08-01T08:11:31;2.00;2.00;2.00
62778;PMS7003;48821;48.796;2.396;2022-08-01T08:12:41;1.25;1.25;1.00
62778;PMS7003;48821;48.796;2.396;2022-08-01T08:13:51;1.00;1.00;1.00
62778;PMS7003;48821;48.796;2.396;2022-08-01T08:15:02;2.00;2.00;1.00
62778;PMS7003;48821;48.796;2.396;2022-08-01T08:16:15;1.00;1.00;1.00
62778;PMS7003;48821;48.796;2.396;2022-08-01T08:17:25;2.25;2.00;1.25
62778;PMS7003;48821;48.796;2.396;2022-08-01T08:18:36;2.50;2.00;2.00
62778;PMS7003;48821;48.796;2.396;2022-08-01T08:19:48;2.00;2.00;2.00
62778;PMS7003;48821;48.796;2.396;2022-08-01T08:20:58;2.50;2.50;2.00
62778;PMS7003;48821;48.796;2.396;2022-08-01T08:22:09;2.75;2.75;2.00
62778;PMS7003;48821;48.796;2.396;2022-08-01T08:23:19;4.00;3.50;3.00
62778;PMS7003;48821;48.796;2.396;2022-08-01T08:24:48;2.00;1.00;1.00
62778;PMS7003;48821;48.796;2.396;2022-08-01T08:25:59;5.00;3.00;2.25
62778;PMS7003;48821;48.796;2.396;2022-08-01T08:27:09;2.50;2.50;1.75
62778;PMS7003;48821;48.796;2.396;2022-08-01T08:28:20;2.50;2.50;1.75
62778;PMS7003;48821;48.796;2.396;2022-08-01T08:29:30;2.50;2.50;2.00
62778;PMS7003;48821;48.796;2.396;2022-08-01T08:30:44;2.25;2.25;2.00
62778;PMS7003;48821;48.796;2.396;2022-08-01T08:31:54;3.00;2.00;2.00
62778;PMS7003;48821;48.796;2.396;2022-08-01T08:33:06;4.00;3.00;2.00
62778;PMS7003;48821;48.796;2.396;2022-08-01T08:34:16;3.00;2.00;1.75
62778;PMS7003;48821;48.796;2.396;2022-08-01T08:35:27;2.00;2.00;2.00
62778;PMS7003;48821;48.796;2.396;2022-08-01T08:36:37;2.50;1.00;1.00
62778;PMS7003;48821;48.796;2.396;2022-08-01T08:37:48;2.00;2.00;2.00
62778;PMS7003;48821;48.796;2.396;2022-08-01T08:38:58;3.25;1.75;1.50
62778;PMS7003;48821;48.796;2.396;2022-08-01T08:40:12;3.00;1.75;1.00
62778;PMS7003;48821;48.796;2.396;2022-08-01T08:41:25;2.00;2.00;2.00
62778;PMS7003;48821;48.796;2.396;2022-08-01T08:42:36;2.00;2.00;1.50
62778;PMS7003;48821;48.796;2.396;2022-08-01T08:43:49;2.25;2.25;2.00
62778;PMS7003;48821;48.796;2.396;2022-08-01T08:45:00;2.00;2.00;2.00
62778;PMS7003;48821;48.796;2.396;2022-08-01T08:46:10;2.00;2.00;2.00
62778;PMS7003;48821;48.796;2.396;2022-08-01T08:47:22;1.25;1.25;1.00
62778;PMS7003;48821;48.796;2.396;2022-08-01T08:48:35;1.00;1.00;1.00
62778;PMS7003;48821;48.796;2.396;2022-08-01T08:49:47;1.25;1.25;1.00
62778;PMS7003;48821;48.796;2.396;2022-08-01T08:51:00;3.00;2.00;2.00
62778;PMS7003;48821;48.796;2.396;2022-08-01T08:52:11;1.25;1.25;1.25
62778;PMS7003;48821;48.796;2.396;2022-08-01T08:53:24;2.75;1.50;1.50
62778;PMS7003;48821;48.796;2.396;2022-08-01T08:54:37;1.00;1.00;1.00
62778;PMS7003;48821;48.796;2.396;2022-08-01T08:55:48;1.25;1.25;1.25
62778;PMS7003;48821;48.796;2.396;2022-08-01T08:57:00;2.25;2.25;2.00
62778;PMS7003;48821;48.796;2.396;2022-08-01T08:58:13;4.00;2.50;2.00
62778;PMS7003;48821;48.796;2.396;2022-08-01T08:59:27;3.50;2.50;2.00
62778;PMS7003;48821;48.796;2.396;2022-08-01T09:00:41;1.25;1.25;1.00
62778;PMS7003;48821;48.796;2.396;2022-08-01T09:01:51;3.25;2.25;2.00
62778;PMS7003;48821;48.796;2.396;2022-08-01T09:03:02;2.25;2.25;1.75
62778;PMS7003;48821;48.796;2.396;2022-08-01T09:04:12;3.75;3.00;3.00
62778;PMS7003;48821;48.796;2.396;2022-08-01T09:05:23;2.00;2.00;2.00
62778;PMS7003;48821;48.796;2.396;2022-08-01T09:06:37;2.25;1.00;1.00
62778;PMS7003;48821;48.796;2.396;2022-08-01T09:07:48;2.00;2.00;1.25
62778;PMS7003;48821;48.796;2.396;2022-08-01T09:08:59;1.00;1.00;1.00
62778;PMS7003;48821;48.796;2.396;2022-08-01T09:10:09;2.25;2.25;2.00
62778;PMS7003;48821;48.796;2.396;2022-08-01T09:11:20;1.00;1.00;0.25
62778;PMS7003;48821;48.796;2.396;2022-08-01T09:12:30;0.25;0.25;0.00
62778;PMS7003;48821;48.796;2.396;2022-08-01T09:13:48;1.00;1.00;1.00
62778;PMS7003;48821;48.796;2.396;2022-08-01T09:15:12;0.50;0.50;0.00
62778;PMS7003;48821;48.796;2.396;2022-08-01T09:16:22;0.00;0.00;0.00
62778;PMS7003;48821;48.796;2.396;2022-08-01T09:17:40;0.25;0.25;0.00
62778;PMS7003;48821;48.796;2.396;2022-08-01T09:18:51;1.00;1.00;0.00
62778;PMS7003;48821;48.796;2.396;2022-08-01T09:20:01;0.75;0.00;0.00
62778;PMS7003;48821;48.796;2.396;2022-08-01T09:21:16;1.00;1.00;1.00
62778;PMS7003;48821;48.796;2.396;2022-08-01T09:22:30;1.50;1.50;1.25
62778;PMS7003;48821;48.796;2.396;2022-08-01T09:26:18;0.25;0.25;0.00
62778;PMS7003;48821;48.796;2.396;2022-08-01T09:27:30;1.25;1.25;1.00
62778;PMS7003;48821;48.796;2.396;2022-08-01T09:28:41;1.25;1.25;1.00
62778;PMS7003;48821;48.796;2.396;2022-08-01T09:29:53;1.25;1.25;1.00
62778;PMS7003;48821;48.796;2.396;2022-08-01T09:31:07;2.00;2.00;1.00
62778;PMS7003;48821;48.796;2.396;2022-08-01T09:32:20;2.00;2.00;1.50
62778;PMS7003;48821;48.796;2.396;2022-08-01T09:33:53;4.00;2.00;2.00
62778;PMS7003;48821;48.796;2.396;2022-08-01T09:35:37;2.50;1.00;1.00
62778;PMS7003;48821;48.796;2.396;2022-08-01T09:36:50;1.00;1.00;1.00
62778;PMS7003;48821;48.796;2.396;2022-08-01T09:39:26;1.25;1.00;1.00
62778;PMS7003;48821;48.796;2.396;2022-08-01T09:42:00;0.50;0.50;0.00
62778;PMS7003;48821;48.796;2.396;2022-08-01T09:43:11;0.00;0.00;0.00
62778;PMS7003;48821;48.796;2.396;2022-08-01T09:44:41;3.75;1.25;1.00
62778;PMS7003;48821;48.796;2.396;2022-08-01T09:45:54;0.75;0.75;0.50
62778;PMS7003;48821;48.796;2.396;2022-08-01T09:47:05;1.00;1.00;1.00
62778;PMS7003;48821;48.796;2.396;2022-08-01T09:48:16;1.00;1.00;1.00
62778;PMS7003;48821;48.796;2.396;2022-08-01T09:49:32;1.75;1.75;1.25
62778;PMS7003;48821;48.796;2.396;2022-08-01T09:50:47;2.00;2.00;2.00
62778;PMS7003;48821;48.796;2.396;2022-08-01T09:51:59;4.25;1.00;1.00
62778;PMS7003;48821;48.796;2.396;2022-08-01T09:53:23;1.25;1.00;0.75
62778;PMS7003;48821;48.796;2.396;2022-08-01T09:54:33;3.00;1.00;1.00
62778;PMS7003;48821;48.796;2.396;2022-08-01T09:55:43;1.25;1.25;1.00
62778;PMS7003;48821;48.796;2.396;2022-08-01T09:57:07;1.00;1.00;1.00
62778;PMS7003;48821;48.796;2.396;2022-08-01T09:58:22;1.50;1.50;1.00
62778;PMS7003;48821;48.796;2.396;2022-08-01T09:59:36;1.50;1.50;1.25
62778;PMS7003;48821;48.796;2.396;2022-08-01T10:00:58;1.75;0.75;0.75
62778;PMS7003;48821;48.796;2.396;2022-08-01T10:03:43;1.00;1.00;1.00
62778;PMS7003;48821;48.796;2.396;2022-08-01T10:04:53;2.75;2.00;1.75
62778;PMS7003;48821;48.796;2.396;2022-08-01T10:06:18;2.25;2.00;1.25
62778;PMS7003;48821;48.796;2.396;2022-08-01T10:07:32;2.25;2.00;2.00
62778;PMS7003;48821;48.796;2.396;2022-08-01T10:08:46;1.50;1.50;1.00
62778;PMS7003;48821;48.796;2.396;2022-08-01T10:10:13;2.00;2.00;2.00
62778;PMS7003;48821;48.796;2.396;2022-08-01T10:11:24;3.00;3.00;2.00
62778;PMS7003;48821;48.796;2.396;2022-08-01T10:12:36;2.50;2.50;1.50
62778;PMS7003;48821;48.796;2.396;2022-08-01T10:13:47;2.00;2.00;1.75
62778;PMS7003;48821;48.796;2.396;2022-08-01T10:14:58;3.00;1.50;1.25
62778;PMS7003;48821;48.796;2.396;2022-08-01T10:16:08;2.50;2.00;2.00
62778;PMS7003;48821;48.796;2.396;2022-08-01T10:17:24;2.50;2.50;2.00
62778;PMS7003;48821;48.796;2.396;2022-08-01T10:18:35;2.75;2.00;2.00
62778;PMS7003;48821;48.796;2.396;2022-08-01T10:19:48;4.00;3.00;2.00
62778;PMS7003;48821;48.796;2.396;2022-08-01T10:21:01;1.50;1.50;1.50
62778;PMS7003;48821;48.796;2.396;2022-08-01T10:22:13;2.00;2.00;2.00
62778;PMS7003;48821;48.796;2.396;2022-08-01T10:23:29;2.25;2.25;2.00
62778;PMS7003;48821;48.796;2.396;2022-08-01T10:24:45;2.00;2.00;1.50
62778;PMS7003;48821;48.796;2.396;2022-08-01T10:25:57;2.00;2.00;2.00
62778;PMS7003;48821;48.796;2.396;2022-08-01T10:27:09;2.00;1.00;1.00
62778;PMS7003;48821;48.796;2.396;2022-08-01T10:28:20;1.75;1.75;1.50
62778;PMS7003;48821;48.796;2.396;2022-08-01T10:30:47;2.25;2.25;2.00
62778;PMS7003;48821;48.796;2.396;2022-08-01T10:31:58;2.00;2.00;2.00
62778;PMS7003;48821;48.796;2.396;2022-08-01T10:33:09;2.50;2.50;2.00
62778;PMS7003;48821;48.796;2.396;2022-08-01T10:34:20;1.00;1.00;1.00
62778;PMS7003;48821;48.796;2.396;2022-08-01T10:35:31;1.00;1.00;1.00
62778;PMS7003;48821;48.796;2.396;2022-08-01T10:36:42;2.25;2.25;2.00
62778;PMS7003;48821;48.796;2.396;2022-08-01T10:37:54;3.50;2.75;2.00
62778;PMS7003;48821;48.796;2.396;2022-08-01T10:39:10;0.75;0.75;0.75
62778;PMS7003;48821;48.796;2.396;2022-08-01T10:40:21;3.50;3.50;3.00
62778;PMS7003;48821;48.796;2.396;2022-08-01T10:41:33;2.50;2.50;2.00
62778;PMS7003;48821;48.796;2.396;2022-08-01T10:42:44;2.50;2.50;2.00
62778;PMS7003;48821;48.796;2.396;2022-08-01T10:43:55;4.25;2.50;2.25
62778;PMS7003;48821;48.796;2.396;2022-08-01T10:45:07;2.50;2.50;2.00
62778;PMS7003;48821;48.796;2.396;2022-08-01T10:46:19;2.25;2.25;1.75
62778;PMS7003;48821;48.796;2.396;2022-08-01T10:47:38;2.50;2.50;2.00
62778;PMS7003;48821;48.796;2.396;2022-08-01T10:49:13;1.00;0.00;0.00
62778;PMS7003;48821;48.796;2.396;2022-08-01T10:50:48;4.25;3.00;3.00
62778;PMS7003;48821;48.796;2.396;2022-08-01T10:51:59;2.50;2.50;2.00
62778;PMS7003;48821;48.796;2.396;2022-08-01T10:54:26;2.50;2.50;2.00
62778;PMS7003;48821;48.796;2.396;2022-08-01T10:57:00;2.75;1.00;1.00
62778;PMS7003;48821;48.796;2.396;2022-08-01T10:58:11;2.00;2.00;1.75
62778;PMS7003;48821;48.796;2.396;2022-08-01T10:59:25;2.50;2.50;2.00
62778;PMS7003;48821;48.796;2.396;2022-08-01T11:00:37;2.00;2.00;1.00
62778;PMS7003;48821;48.796;2.396;2022-08-01T11:02:08;3.00;2.75;1.50
62778;PMS7003;48821;48.796;2.396;2022-08-01T11:03:26;3.00;3.00;3.00
62778;PMS7003;48821;48.796;2.396;2022-08-01T11:04:50;2.75;2.75;2.00
62778;PMS7003;48821;48.796;2.396;2022-08-01T11:06:05;2.00;1.75;1.75
62778;PMS7003;48821;48.796;2.396;2022-08-01T11:07:17;3.50;2.25;2.00
62778;PMS7003;48821;48.796;2.396;2022-08-01T11:08:30;4.00;4.00;3.00
62778;PMS7003;48821;48.796;2.396;2022-08-01T11:09:46;1.75;1.75;1.50
62778;PMS7003;48821;48.796;2.396;2022-08-01T11:11:00;2.25;2.25;2.00
62778;PMS7003;48821;48.796;2.396;2022-08-01T11:12:12;2.00;2.00;2.00
62778;PMS7003;48821;48.796;2.396;2022-08-01T11:17:42;4.25;3.50;2.75
62778;PMS7003;48821;48.796;2.396;2022-08-01T11:19:01;3.25;3.00;2.00
62778;PMS7003;48821;48.796;2.396;2022-08-01T11:20:24;4.00;3.50;3.00
62778;PMS7003;48821;48.796;2.396;2022-08-01T11:24:15;3.00;3.00;2.75
62778;PMS7003;48821;48.796;2.396;2022-08-01T11:27:22;4.50;4.50;3.50
62778;PMS7003;48821;48.796;2.396;2022-08-01T11:28:27;3.25;3.00;2.25
62778;PMS7003;48821;48.796;2.396;2022-08-01T11:29:39;3.00;3.00;3.00
62778;PMS7003;48821;48.796;2.396;2022-08-01T11:30:50;4.25;3.25;3.00
62778;PMS7003;48821;48.796;2.396;2022-08-01T11:32:23;4.00;4.00;3.00
62778;PMS7003;48821;48.796;2.396;2022-08-01T11:34:51;4.25;3.50;3.00
62778;PMS7003;48821;48.796;2.396;2022-08-01T11:37:25;2.50;2.50;2.00
62778;PMS7003;48821;48.796;2.396;2022-08-01T11:38:41;4.75;3.75;3.00
62778;PMS7003;48821;48.796;2.396;2022-08-01T11:41:24;4.50;4.00;3.25
62778;PMS7003;48821;48.796;2.396;2022-08-01T11:42:40;5.25;4.00;4.00
62778;PMS7003;48821;48.796;2.396;2022-08-01T11:45:18;5.50;3.00;3.00
62778;PMS7003;48821;48.796;2.396;2022-08-01T11:48:00;3.75;3.25;2.25
62778;PMS7003;48821;48.796;2.396;2022-08-01T11:50:42;4.25;4.00;4.00
62778;PMS7003;48821;48.796;2.396;2022-08-01T11:51:56;2.50;2.50;2.00
62778;PMS7003;48821;48.796;2.396;2022-08-01T11:53:07;4.00;4.00;3.00
62778;PMS7003;48821;48.796;2.396;2022-08-01T11:54:18;4.00;4.00;3.00
62778;PMS7003;48821;48.796;2.396;2022-08-01T11:55:34;4.00;4.00;3.00
62778;PMS7003;48821;48.796;2.396;2022-08-01T11:56:47;3.50;3.50;3.00
62778;PMS7003;48821;48.796;2.396;2022-08-01T11:58:01;6.00;4.50;4.00
62778;PMS7003;48821;48.796;2.396;2022-08-01T11:59:13;4.00;4.00;3.00
62778;PMS7003;48821;48.796;2.396;2022-08-01T12:00:24;4.00;4.00;3.00
62778;PMS7003;48821;48.796;2.396;2022-08-01T12:01:34;3.25;3.25;3.00
62778;PMS7003;48821;48.796;2.396;2022-08-01T12:02:45;4.25;4.25;4.00
62778;PMS7003;48821;48.796;2.396;2022-08-01T12:03:56;4.75;4.75;4.00
62778;PMS7003;48821;48.796;2.396;2022-08-01T12:06:26;1.75;1.75;0.00
62778;PMS7003;48821;48.796;2.396;2022-08-01T12:07:40;5.00;5.00;3.00
62778;PMS7003;48821;48.796;2.396;2022-08-01T12:08:52;3.25;3.25;3.00
62778;PMS7003;48821;48.796;2.396;2022-08-01T12:10:04;5.00;5.00;3.25
62778;PMS7003;48821;48.796;2.396;2022-08-01T12:11:18;3.25;3.25;3.25
62778;PMS7003;48821;48.796;2.396;2022-08-01T12:12:29;0.00;0.00;0.00
62778;PMS7003;48821;48.796;2.396;2022-08-01T12:13:41;4.25;4.25;3.75
62778;PMS7003;48821;48.796;2.396;2022-08-01T12:14:56;6.00;5.00;3.50
62778;PMS7003;48821;48.796;2.396;2022-08-01T12:16:09;3.00;3.00;2.75
62778;PMS7003;48821;48.796;2.396;2022-08-01T12:17:27;5.00;3.50;3.00
62778;PMS7003;48821;48.796;2.396;2022-08-01T12:18:40;3.50;3.25;3.00
62778;PMS7003;48821;48.796;2.396;2022-08-01T12:19:51;3.00;3.00;2.50
62778;PMS7003;48821;48.796;2.396;2022-08-01T12:21:02;4.50;3.50;2.50
62778;PMS7003;48821;48.796;2.396;2022-08-01T12:22:14;5.75;4.75;4.00
62778;PMS7003;48821;48.796;2.396;2022-08-01T12:23:25;3.50;3.00;2.50
62778;PMS7003;48821;48.796;2.396;2022-08-01T12:24:35;5.00;4.00;4.00
62778;PMS7003;48821;48.796;2.396;2022-08-01T12:25:50;3.50;3.50;3.00
62778;PMS7003;48821;48.796;2.396;2022-08-01T12:27:01;7.25;6.25;5.25